sensor_id;sensor_type;location;lat;lon;timestamp;temperature;humidity
26136;DHT22;13889;50.806;4.608;2022-09-27T00:01:02;12.90;99.90
26136;DHT22;13889;50.806;4.608;2022-09-27T00:03:30;13.00;99.90
26136;DHT22;13889;50.806;4.608;2022-09-27T00:06:01;13.10;99.90
26136;DHT22;13889;50.806;4.608;2022-09-27T00:08:29;13.10;99.90
26136;DHT22;13889;50.806;4.608;2022-09-27T00:11:00;13.00;99.90
26136;DHT22;13889;50.806;4.608;2022-09-27T00:13:27;13.00;99.90
26136;DHT22;13889;50.806;4.608;2022-09-27T00:16:01;12.90;99.90
26136;DHT22;13889;50.806;4.608;2022-09-27T00:18:30;12.90;99.90
26136;DHT22;13889;50.806;4.608;2022-09-27T00:21:07;12.90;99.90
26136;DHT22;13889;50.806;4.608;2022-09-27T00:23:33;12.90;99.90
26136;DHT22;13889;50.806;4.608;2022-09-27T00:26:06;12.80;99.90
26136;DHT22;13889;50.806;4.608;2022-09-27T00:28:33;12.80;99.90
26136;DHT22;13889;50.806;4.608;2022-09-27T00:31:00;12.90;99.90
26136;DHT22;13889;50.806;4.608;2022-09-27T00:33:27;13.00;99.90
26136;DHT22;13889;50.806;4.608;2022-09-27T00:35:53;12.90;99.90
26136;DHT22;13889;50.806;4.608;2022-09-27T00:38:19;12.90;99.90
26136;DHT22;13889;50.806;4.608;2022-09-27T00:40:45;12.90;99.90
26136;DHT22;13889;50.806;4.608;2022-09-27T00:43:20;12.90;99.90
26136;DHT22;13889;50.806;4.608;2022-09-27T00:45:51;12.90;99.90
26136;DHT22;13889;50.806;4.608;2022-09-27T00:48:21;12.90;99.90
26136;DHT22;13889;50.806;4.608;2022-09-27T00:50:50;13.00;99.90
26136;DHT22;13889;50.806;4.608;2022-09-27T00:53:22;13.00;99.90
26136;DHT22;13889;50.806;4.608;2022-09-27T00:56:00;12.80;99.90
26136;DHT22;13889;50.806;4.608;2022-09-27T00:58:29;12.80;99.90
26136;DHT22;13889;50.806;4.608;2022-09-27T01:01:04;12.90;99.90
26136;DHT22;13889;50.806;4.608;2022-09-27T01:03:54;12.90;99.90
26136;DHT22;13889;50.806;4.608;2022-09-27T01:06:21;12.90;99.90
26136;DHT22;13889;50.806;4.608;2022-09-27T01:08:48;12.90;99.90
26136;DHT22;13889;50.806;4.608;2022-09-27T01:34:46;13.10;99.90
26136;DHT22;13889;50.806;4.608;2022-09-27T01:37:41;13.00;99.90
26136;DHT22;13889;50.806;4.608;2022-09-27T01:40:31;13.00;99.90
26136;DHT22;13889;50.806;4.608;2022-09-27T01:43:14;12.90;99.90
26136;DHT22;13889;50.806;4.608;2022-09-27T01:46:10;12.90;99.90
26136;DHT22;13889;50.806;4.608;2022-09-27T01:48:47;13.00;99.90
26136;DHT22;13889;50.806;4.608;2022-09-27T01:51:21;13.00;99.90
26136;DHT22;13889;50.806;4.608;2022-09-27T01:53:51;12.90;99.90
26136;DHT22;13889;50.806;4.608;2022-09-27T01:56:23;12.90;99.90
26136;DHT22;13889;50.806;4.608;2022-09-27T02:01:27;12.90;99.90
26136;DHT22;13889;50.806;4.608;2022-09-27T02:03:55;12.90;99.90
26136;DHT22;13889;50.806;4.608;2022-09-27T02:06:42;13.00;99.90
26136;DHT22;13889;50.806;4.608;2022-09-27T02:09:20;12.90;99.90
26136;DHT22;13889;50.806;4.608;2022-09-27T02:11:57;12.80;99.90
26136;DHT22;13889;50.806;4.608;2022-09-27T02:14:44;12.80;99.90
26136;DHT22;13889;50.806;4.608;2022-09-27T02:17:36;12.80;99.90
26136;DHT22;13889;50.806;4.608;2022-09-27T02:20:29;12.80;99.90
26136;DHT22;13889;50.806;4.608;2022-09-27T02:25:55;12.70;99.90
26136;DHT22;13889;50.806;4.608;2022-09-27T02:30:48;12.80;99.90
26136;DHT22;13889;50.806;4.608;2022-09-27T02:33:15;12.70;99.90
26136;DHT22;13889;50.806;4.608;2022-09-27T02:35:41;12.60;99.90
26136;DHT22;13889;50.806;4.608;2022-09-27T02:38:07;12.60;99.90
26136;DHT22;13889;50.806;4.608;2022-09-27T02:40:40;12.70;99.90
26136;DHT22;13889;50.806;4.608;2022-09-27T02:43:06;12.80;99.90
26136;DHT22;13889;50.806;4.608;2022-09-27T02:45:49;12.80;99.90
26136;DHT22;13889;50.806;4.608;2022-09-27T02:56:46;12.80;99.90
26136;DHT22;13889;50.806;4.608;2022-09-27T02:59:38;12.70;99.90
26136;DHT22;13889;50.806;4.608;2022-09-27T03:05:00;12.60;99.90
26136;DHT22;13889;50.806;4.608;2022-09-27T03:07:28;12.50;99.90
26136;DHT22;13889;50.806;4.608;2022-09-27T03:09:55;12.60;99.90
26136;DHT22;13889;50.806;4.608;2022-09-27T03:12:22;12.70;99.90
26136;DHT22;13889;50.806;4.608;2022-09-27T03:14:56;12.80;99.90
26136;DHT22;13889;50.806;4.608;2022-09-27T03:17:29;12.80;99.90
26136;DHT22;13889;50.806;4.608;2022-09-27T03:19:55;12.80;99.90
26136;DHT22;13889;50.806;4.608;2022-09-27T03:22:20;12.80;99.90
26136;DHT22;13889;50.806;4.608;2022-09-27T03:24:46;12.90;99.90
26136;DHT22;13889;50.806;4.608;2022-09-27T03:27:12;12.80;99.90
26136;DHT22;13889;50.806;4.608;2022-09-27T03:29:38;12.60;99.90
26136;DHT22;13889;50.806;4.608;2022-09-27T03:32:04;12.70;99.90
26136;DHT22;13889;50.806;4.608;2022-09-27T03:34:31;12.70;99.90
26136;DHT22;13889;50.806;4.608;2022-09-27T03:36:57;12.70;99.90
26136;DHT22;13889;50.806;4.608;2022-09-27T03:39:23;12.70;99.90
26136;DHT22;13889;50.806;4.608;2022-09-27T03:41:49;12.70;99.90
26136;DHT22;13889;50.806;4.608;2022-09-27T03:44:15;12.50;99.90
26136;DHT22;13889;50.806;4.608;2022-09-27T03:46:41;12.50;99.90
26136;DHT22;13889;50.806;4.608;2022-09-27T03:49:08;12.60;99.90
26136;DHT22;13889;50.806;4.608;2022-09-27T03:51:34;12.70;99.90
26136;DHT22;13889;50.806;4.608;2022-09-27T03:54:00;12.70;99.90
26136;DHT22;13889;50.806;4.608;2022-09-27T03:56:25;12.50;99.90
26136;DHT22;13889;50.806;4.608;2022-09-27T03:58:51;12.60;99.90
26136;DHT22;13889;50.806;4.608;2022-09-27T04:01:17;12.50;99.90
26136;DHT22;13889;50.806;4.608;2022-09-27T04:03:44;12.50;99.90
26136;DHT22;13889;50.806;4.608;2022-09-27T04:06:10;12.50;99.90
26136;DHT22;13889;50.806;4.608;2022-09-27T04:08:37;12.50;99.90
26136;DHT22;13889;50.806;4.608;2022-09-27T04:11:02;12.50;99.90
26136;DHT22;13889;50.806;4.608;2022-09-27T04:13:28;12.60;99.90
26136;DHT22;13889;50.806;4.608;2022-09-27T04:15:54;12.70;99.90
26136;DHT22;13889;50.806;4.608;2022-09-27T04:18:20;12.80;99.90
26136;DHT22;13889;50.806;4.608;2022-09-27T04:20:46;12.80;99.90
26136;DHT22;13889;50.806;4.608;2022-09-27T04:23:17;12.80;99.90
26136;DHT22;13889;50.806;4.608;2022-09-27T04:25:44;12.80;99.90
26136;DHT22;13889;50.806;4.608;2022-09-27T04:28:10;12.70;99.90
26136;DHT22;13889;50.806;4.608;2022-09-27T04:30:36;12.60;99.90
26136;DHT22;13889;50.806;4.608;2022-09-27T04:33:02;12.60;99.90
26136;DHT22;13889;50.806;4.608;2022-09-27T04:35:29;12.60;99.90
26136;DHT22;13889;50.806;4.608;2022-09-27T04:38:13;12.60;99.90
26136;DHT22;13889;50.806;4.608;2022-09-27T04:40:39;12.70;99.90
26136;DHT22;13889;50.806;4.608;2022-09-27T04:43:06;12.70;99.90
26136;DHT22;13889;50.806;4.608;2022-09-27T04:45:40;12.70;99.90
26136;DHT22;13889;50.806;4.608;2022-09-27T04:48:17;12.80;99.90
26136;DHT22;13889;50.806;4.608;2022-09-27T04:50:45;12.80;99.90
26136;DHT22;13889;50.806;4.608;2022-09-27T04:53:16;12.80;99.90
26136;DHT22;13889;50.806;4.608;2022-09-27T04:55:45;12.80;99.90
26136;DHT22;13889;50.806;4.608;2022-09-27T04:58:13;12.80;99.90
26136;DHT22;13889;50.806;4.608;2022-09-27T05:00:39;12.80;99.90
26136;DHT22;13889;50.806;4.608;2022-09-27T05:03:07;12.90;99.90
26136;DHT22;13889;50.806;4.608;2022-09-27T05:05:33;12.80;99.90
26136;DHT22;13889;50.806;4.608;2022-09-27T05:07:58;12.80;99.90
26136;DHT22;13889;50.806;4.608;2022-09-27T05:10:34;12.80;99.90
26136;DHT22;13889;50.806;4.608;2022-09-27T05:13:00;12.80;99.90
26136;DHT22;13889;50.806;4.608;2022-09-27T05:15:30;12.80;99.90
26136;DHT22;13889;50.806;4.608;2022-09-27T05:17:58;12.70;99.90
26136;DHT22;13889;50.806;4.608;2022-09-27T05:20:24;12.70;99.90
26136;DHT22;13889;50.806;4.608;2022-09-27T05:23:03;12.70;99.90
26136;DHT22;13889;50.806;4.608;2022-09-27T05:25:30;12.60;99.90
26136;DHT22;13889;50.806;4.608;2022-09-27T05:27:57;12.60;99.90
26136;DHT22;13889;50.806;4.608;2022-09-27T05:30:24;12.60;99.90
26136;DHT22;13889;50.806;4.608;2022-09-27T05:32:50;12.60;99.90
26136;DHT22;13889;50.806;4.608;2022-09-27T05:35:17;12.50;99.90
26136;DHT22;13889;50.806;4.608;2022-09-27T05:37:55;12.60;99.90
26136;DHT22;13889;50.806;4.608;2022-09-27T05:40:22;12.60;99.90
26136;DHT22;13889;50.806;4.608;2022-09-27T05:42:53;12.50;99.90
26136;DHT22;13889;50.806;4.608;2022-09-27T05:45:21;12.60;99.90
26136;DHT22;13889;50.806;4.608;2022-09-27T05:47:54;12.50;99.90
26136;DHT22;13889;50.806;4.608;2022-09-27T05:50:22;12.60;99.90
26136;DHT22;13889;50.806;4.608;2022-09-27T05:52:48;12.70;99.90
26136;DHT22;13889;50.806;4.608;2022-09-27T05:55:14;12.70;99.90
26136;DHT22;13889;50.806;4.608;2022-09-27T05:57:40;12.60;99.90
26136;DHT22;13889;50.806;4.608;2022-09-27T06:00:07;12.70;99.90
26136;DHT22;13889;50.806;4.608;2022-09-27T06:02:34;12.60;99.90
26136;DHT22;13889;50.806;4.608;2022-09-27T06:05:00;12.70;99.90
26136;DHT22;13889;50.806;4.608;2022-09-27T06:07:30;12.70;99.90
26136;DHT22;13889;50.806;4.608;2022-09-27T06:09:57;12.60;99.90
26136;DHT22;13889;50.806;4.608;2022-09-27T06:12:23;12.70;99.90
26136;DHT22;13889;50.806;4.608;2022-09-27T06:14:48;12.70;99.90
26136;DHT22;13889;50.806;4.608;2022-09-27T06:17:14;12.60;99.90
26136;DHT22;13889;50.806;4.608;2022-09-27T06:19:39;12.70;99.90
26136;DHT22;13889;50.806;4.608;2022-09-27T06:22:05;12.70;99.90
26136;DHT22;13889;50.806;4.608;2022-09-27T06:24:31;12.80;99.90
26136;DHT22;13889;50.806;4.608;2022-09-27T06:26:56;12.80;99.90
26136;DHT22;13889;50.806;4.608;2022-09-27T06:29:22;12.90;99.90
26136;DHT22;13889;50.806;4.608;2022-09-27T06:31:48;12.90;99.90
26136;DHT22;13889;50.806;4.608;2022-09-27T06:34:13;12.90;99.90
26136;DHT22;13889;50.806;4.608;2022-09-27T06:36:39;12.90;99.90
26136;DHT22;13889;50.806;4.608;2022-09-27T06:39:05;13.00;99.90
26136;DHT22;13889;50.806;4.608;2022-09-27T06:41:31;13.00;99.90
26136;DHT22;13889;50.806;4.608;2022-09-27T06:43:57;13.00;99.90
26136;DHT22;13889;50.806;4.608;2022-09-27T06:46:23;13.00;99.90
26136;DHT22;13889;50.806;4.608;2022-09-27T06:48:49;13.10;99.90
26136;DHT22;13889;50.806;4.608;2022-09-27T06:51:14;13.00;99.90
26136;DHT22;13889;50.806;4.608;2022-09-27T06:53:40;13.00;99.90
26136;DHT22;13889;50.806;4.608;2022-09-27T06:56:05;13.00;99.90
26136;DHT22;13889;50.806;4.608;2022-09-27T06:58:31;13.10;99.90
26136;DHT22;13889;50.806;4.608;2022-09-27T07:01:15;13.10;99.90
26136;DHT22;13889;50.806;4.608;2022-09-27T07:03:42;13.10;99.90
26136;DHT22;13889;50.806;4.608;2022-09-27T07:06:17;13.10;99.90
26136;DHT22;13889;50.806;4.608;2022-09-27T07:08:49;13.20;99.90
26136;DHT22;13889;50.806;4.608;2022-09-27T07:11:15;13.20;99.90
26136;DHT22;13889;50.806;4.608;2022-09-27T07:13:41;13.30;99.90
26136;DHT22;13889;50.806;4.608;2022-09-27T07:16:10;13.30;99.90
26136;DHT22;13889;50.806;4.608;2022-09-27T07:18:37;13.40;99.90
26136;DHT22;13889;50.806;4.608;2022-09-27T07:21:03;13.40;99.90
26136;DHT22;13889;50.806;4.608;2022-09-27T07:23:29;13.40;99.90
26136;DHT22;13889;50.806;4.608;2022-09-27T07:25:55;13.40;99.90
26136;DHT22;13889;50.806;4.608;2022-09-27T07:28:20;13.40;99.90
26136;DHT22;13889;50.806;4.608;2022-09-27T07:30:46;13.50;99.90
26136;DHT22;13889;50.806;4.608;2022-09-27T07:33:12;13.60;99.90
26136;DHT22;13889;50.806;4.608;2022-09-27T07:35:39;13.60;99.90
26136;DHT22;13889;50.806;4.608;2022-09-27T07:38:05;13.70;99.90
26136;DHT22;13889;50.806;4.608;2022-09-27T07:40:34;13.60;99.90
26136;DHT22;13889;50.806;4.608;2022-09-27T07:43:00;13.50;99.90
26136;DHT22;13889;50.806;4.608;2022-09-27T07:45:26;13.60;99.90
26136;DHT22;13889;50.806;4.608;2022-09-27T07:47:52;13.60;99.90
26136;DHT22;13889;50.806;4.608;2022-09-27T07:50:18;13.50;99.90
26136;DHT22;13889;50.806;4.608;2022-09-27T07:52:46;13.60;99.90
26136;DHT22;13889;50.806;4.608;2022-09-27T07:55:13;13.70;99.90
26136;DHT22;13889;50.806;4.608;2022-09-27T07:57:39;13.80;99.90
26136;DHT22;13889;50.806;4.608;2022-09-27T08:00:14;13.90;99.90
26136;DHT22;13889;50.806;4.608;2022-09-27T08:02:40;14.20;99.90
26136;DHT22;13889;50.806;4.608;2022-09-27T08:05:07;14.30;99.90
26136;DHT22;13889;50.806;4.608;2022-09-27T08:07:32;14.40;99.90
26136;DHT22;13889;50.806;4.608;2022-09-27T08:09:58;14.50;99.90
26136;DHT22;13889;50.806;4.608;2022-09-27T08:12:24;14.60;99.90
26136;DHT22;13889;50.806;4.608;2022-09-27T08:14:50;14.70;99.90
26136;DHT22;13889;50.806;4.608;2022-09-27T08:17:17;14.80;99.90
26136;DHT22;13889;50.806;4.608;2022-09-27T08:19:44;14.80;99.90
26136;DHT22;13889;50.806;4.608;2022-09-27T08:22:10;14.80;99.90
26136;DHT22;13889;50.806;4.608;2022-09-27T08:24:39;14.80;99.90
26136;DHT22;13889;50.806;4.608;2022-09-27T08:27:04;14.60;99.90
26136;DHT22;13889;50.806;4.608;2022-09-27T08:29:34;14.50;99.90
26136;DHT22;13889;50.806;4.608;2022-09-27T08:31:59;14.40;99.90
26136;DHT22;13889;50.806;4.608;2022-09-27T08:34:25;14.40;99.90
26136;DHT22;13889;50.806;4.608;2022-09-27T08:36:52;14.30;99.90
26136;DHT22;13889;50.806;4.608;2022-09-27T08:39:20;14.20;99.90
26136;DHT22;13889;50.806;4.608;2022-09-27T08:45:06;14.40;99.90
26136;DHT22;13889;50.806;4.608;2022-09-27T08:47:40;14.40;99.90
26136;DHT22;13889;50.806;4.608;2022-09-27T08:53:24;14.40;99.90
26136;DHT22;13889;50.806;4.608;2022-09-27T08:55:56;14.50;99.90
26136;DHT22;13889;50.806;4.608;2022-09-27T09:01:00;14.50;99.90
26136;DHT22;13889;50.806;4.608;2022-09-27T09:03:33;14.60;99.90
26136;DHT22;13889;50.806;4.608;2022-09-27T09:17:54;14.70;99.90
26136;DHT22;13889;50.806;4.608;2022-09-27T09:20:57;14.60;99.90
26136;DHT22;13889;50.806;4.608;2022-09-27T09:23:50;14.80;99.90
26136;DHT22;13889;50.806;4.608;2022-09-27T09:34:36;14.40;99.90
26136;DHT22;13889;50.806;4.608;2022-09-27T09:37:16;14.60;99.90
26136;DHT22;13889;50.806;4.608;2022-09-27T09:42:59;14.80;99.90
26136;DHT22;13889;50.806;4.608;2022-09-27T09:45:32;14.80;99.90
26136;DHT22;13889;50.806;4.608;2022-09-27T09:48:06;14.90;99.90
26136;DHT22;13889;50.806;4.608;2022-09-27T09:51:00;14.90;99.90
26136;DHT22;13889;50.806;4.608;2022-09-27T09:53:51;15.00;99.90
26136;DHT22;13889;50.806;4.608;2022-09-27T09:56:35;15.00;99.90
26136;DHT22;13889;50.806;4.608;2022-09-27T09:59:11;14.90;99.90
26136;DHT22;13889;50.806;4.608;2022-09-27T10:01:44;15.00;99.90
26136;DHT22;13889;50.806;4.608;2022-09-27T10:04:21;15.20;99.90
26136;DHT22;13889;50.806;4.608;2022-09-27T10:06:47;15.40;99.90
26136;DHT22;13889;50.806;4.608;2022-09-27T10:09:15;15.60;99.90
26136;DHT22;13889;50.806;4.608;2022-09-27T10:11:44;15.70;99.90
26136;DHT22;13889;50.806;4.608;2022-09-27T10:14:16;15.70;99.90
26136;DHT22;13889;50.806;4.608;2022-09-27T10:16:46;15.60;99.90
26136;DHT22;13889;50.806;4.608;2022-09-27T10:19:15;15.40;99.90
26136;DHT22;13889;50.806;4.608;2022-09-27T10:21:45;15.40;99.90
26136;DHT22;13889;50.806;4.608;2022-09-27T10:24:15;15.40;99.90
26136;DHT22;13889;50.806;4.608;2022-09-27T10:26:43;15.40;99.90
26136;DHT22;13889;50.806;4.608;2022-09-27T10:29:23;15.50;99.90
26136;DHT22;13889;50.806;4.608;2022-09-27T10:31:52;15.70;99.90
26136;DHT22;13889;50.806;4.608;2022-09-27T10:34:33;15.90;99.90
26136;DHT22;13889;50.806;4.608;2022-09-27T10:39:40;16.40;99.90
26136;DHT22;13889;50.806;4.608;2022-09-27T10:42:34;16.30;99.90
26136;DHT22;13889;50.806;4.608;2022-09-27T10:45:25;16.50;99.90
26136;DHT22;13889;50.806;4.608;2022-09-27T10:47:51;16.40;99.90
26136;DHT22;13889;50.806;4.608;2022-09-27T10:50:31;16.40;99.90
26136;DHT22;13889;50.806;4.608;2022-09-27T10:53:13;16.50;99.90
26136;DHT22;13889;50.806;4.608;2022-09-27T10:55:41;16.50;99.90
26136;DHT22;13889;50.806;4.608;2022-09-27T10:58:26;16.40;99.90
26136;DHT22;13889;50.806;4.608;2022-09-27T11:01:04;16.60;99.90
26136;DHT22;13889;50.806;4.608;2022-09-27T11:03:32;16.60;99.90
26136;DHT22;13889;50.806;4.608;2022-09-27T11:08:50;16.60;99.90
26136;DHT22;13889;50.806;4.608;2022-09-27T11:11:20;16.60;99.90
26136;DHT22;13889;50.806;4.608;2022-09-27T11:14:09;16.50;99.90
26136;DHT22;13889;50.806;4.608;2022-09-27T11:38:29;16.00;99.90
26136;DHT22;13889;50.806;4.608;2022-09-27T11:46:38;16.50;99.90
26136;DHT22;13889;50.806;4.608;2022-09-27T11:51:46;16.50;99.90
26136;DHT22;13889;50.806;4.608;2022-09-27T11:57:22;16.70;99.90
26136;DHT22;13889;50.806;4.608;2022-09-27T12:05:26;16.80;99.90
26136;DHT22;13889;50.806;4.608;2022-09-27T12:08:26;17.00;99.90
26136;DHT22;13889;50.806;4.608;2022-09-27T12:11:02;17.30;99.90
26136;DHT22;13889;50.806;4.608;2022-09-27T12:13:37;17.30;99.90
26136;DHT22;13889;50.806;4.608;2022-09-27T12:16:04;17.30;99.90
26136;DHT22;13889;50.806;4.608;2022-09-27T12:18:38;17.30;99.90
26136;DHT22;13889;50.806;4.608;2022-09-27T12:21:07;17.10;99.90
26136;DHT22;13889;50.806;4.608;2022-09-27T12:23:53;16.90;99.90
26136;DHT22;13889;50.806;4.608;2022-09-27T12:29:05;16.70;99.90
26136;DHT22;13889;50.806;4.608;2022-09-27T12:34:05;16.60;99.90
26136;DHT22;13889;50.806;4.608;2022-09-27T12:36:38;16.60;99.90
26136;DHT22;13889;50.806;4.608;2022-09-27T12:42:20;16.70;99.90
26136;DHT22;13889;50.806;4.608;2022-09-27T12:44:47;16.90;99.90
26136;DHT22;13889;50.806;4.608;2022-09-27T12:53:11;17.00;99.90
26136;DHT22;13889;50.806;4.608;2022-09-27T13:01:44;16.80;99.90
26136;DHT22;13889;50.806;4.608;2022-09-27T13:04:26;16.70;99.90
26136;DHT22;13889;50.806;4.608;2022-09-27T13:07:13;16.70;99.90
26136;DHT22;13889;50.806;4.608;2022-09-27T13:12:25;16.50;99.90
26136;DHT22;13889;50.806;4.608;2022-09-27T13:15:12;16.50;99.90
26136;DHT22;13889;50.806;4.608;2022-09-27T13:26:00;15.90;99.90
26136;DHT22;13889;50.806;4.608;2022-09-27T13:31:01;16.40;99.90
26136;DHT22;13889;50.806;4.608;2022-09-27T13:33:52;16.60;99.90
26136;DHT22;13889;50.806;4.608;2022-09-27T13:41:31;17.50;99.90
26136;DHT22;13889;50.806;4.608;2022-09-27T13:46:55;18.00;99.90
26136;DHT22;13889;50.806;4.608;2022-09-27T13:49:37;18.10;99.90
26136;DHT22;13889;50.806;4.608;2022-09-27T13:52:31;18.20;99.90
26136;DHT22;13889;50.806;4.608;2022-09-27T13:55:02;18.40;99.90
26136;DHT22;13889;50.806;4.608;2022-09-27T13:57:54;18.20;99.90
26136;DHT22;13889;50.806;4.608;2022-09-27T14:00:24;18.10;99.90
26136;DHT22;13889;50.806;4.608;2022-09-27T14:03:13;18.00;99.90
26136;DHT22;13889;50.806;4.608;2022-09-27T14:05:58;18.10;99.90
26136;DHT22;13889;50.806;4.608;2022-09-27T14:08:30;18.10;99.90
26136;DHT22;13889;50.806;4.608;2022-09-27T14:10:57;17.60;99.90
26136;DHT22;13889;50.806;4.608;2022-09-27T14:13:26;17.40;99.90
26136;DHT22;13889;50.806;4.608;2022-09-27T14:15:53;17.20;99.90
26136;DHT22;13889;50.806;4.608;2022-09-27T14:18:21;17.30;99.90
26136;DHT22;13889;50.806;4.608;2022-09-27T14:20:50;17.30;99.90
26136;DHT22;13889;50.806;4.608;2022-09-27T14:23:24;17.50;99.90
26136;DHT22;13889;50.806;4.608;2022-09-27T14:25:52;17.60;99.90
26136;DHT22;13889;50.806;4.608;2022-09-27T14:28:23;17.70;99.90
26136;DHT22;13889;50.806;4.608;2022-09-27T14:31:13;17.80;99.90
26136;DHT22;13889;50.806;4.608;2022-09-27T14:33:40;17.90;99.90
26136;DHT22;13889;50.806;4.608;2022-09-27T14:36:14;17.90;99.90
26136;DHT22;13889;50.806;4.608;2022-09-27T14:39:12;17.90;99.90
26136;DHT22;13889;50.806;4.608;2022-09-27T14:41:38;17.90;99.90
26136;DHT22;13889;50.806;4.608;2022-09-27T14:44:14;17.80;99.90
26136;DHT22;13889;50.806;4.608;2022-09-27T14:46:40;17.80;99.90
26136;DHT22;13889;50.806;4.608;2022-09-27T14:49:23;17.80;99.90
26136;DHT22;13889;50.806;4.608;2022-09-27T14:51:51;17.90;99.90
26136;DHT22;13889;50.806;4.608;2022-09-27T14:54:22;17.70;99.90
26136;DHT22;13889;50.806;4.608;2022-09-27T14:56:50;17.60;99.90
26136;DHT22;13889;50.806;4.608;2022-09-27T14:59:26;17.40;99.90
26136;DHT22;13889;50.806;4.608;2022-09-27T15:01:57;17.20;99.90
26136;DHT22;13889;50.806;4.608;2022-09-27T15:04:26;16.90;99.90
26136;DHT22;13889;50.806;4.608;2022-09-27T15:06:54;16.70;99.90
26136;DHT22;13889;50.806;4.608;2022-09-27T15:09:22;16.60;99.90
26136;DHT22;13889;50.806;4.608;2022-09-27T15:11:52;16.40;99.90
26136;DHT22;13889;50.806;4.608;2022-09-27T15:14:19;16.30;99.90
26136;DHT22;13889;50.806;4.608;2022-09-27T15:16:47;15.80;99.90
26136;DHT22;13889;50.806;4.608;2022-09-27T15:19:16;15.60;99.90
26136;DHT22;13889;50.806;4.608;2022-09-27T15:21:46;15.50;99.90
26136;DHT22;13889;50.806;4.608;2022-09-27T15:24:43;15.50;99.90
26136;DHT22;13889;50.806;4.608;2022-09-27T15:27:22;15.50;99.90
26136;DHT22;13889;50.806;4.608;2022-09-27T15:29:53;15.40;99.90
26136;DHT22;13889;50.806;4.608;2022-09-27T15:32:22;15.40;99.90
26136;DHT22;13889;50.806;4.608;2022-09-27T15:34:48;15.40;99.90
26136;DHT22;13889;50.806;4.608;2022-09-27T15:37:46;15.40;99.90
26136;DHT22;13889;50.806;4.608;2022-09-27T15:42:59;15.70;99.90
26136;DHT22;13889;50.806;4.608;2022-09-27T15:45:28;15.70;99.90
26136;DHT22;13889;50.806;4.608;2022-09-27T15:47:54;15.80;99.90
26136;DHT22;13889;50.806;4.608;2022-09-27T15:52:53;16.00;99.90
26136;DHT22;13889;50.806;4.608;2022-09-27T15:55:26;16.20;99.90
26136;DHT22;13889;50.806;4.608;2022-09-27T15:57:58;16.20;99.90
26136;DHT22;13889;50.806;4.608;2022-09-27T16:00:25;16.10;99.90
26136;DHT22;13889;50.806;4.608;2022-09-27T16:02:51;16.00;99.90
26136;DHT22;13889;50.806;4.608;2022-09-27T16:05:17;15.90;99.90
26136;DHT22;13889;50.806;4.608;2022-09-27T16:07:43;15.90;99.90
26136;DHT22;13889;50.806;4.608;2022-09-27T16:10:20;15.80;99.90
26136;DHT22;13889;50.806;4.608;2022-09-27T16:12:46;15.70;99.90
26136;DHT22;13889;50.806;4.608;2022-09-27T16:15:13;15.70;99.90
26136;DHT22;13889;50.806;4.608;2022-09-27T16:17:39;15.70;99.90
26136;DHT22;13889;50.806;4.608;2022-09-27T16:20:19;15.70;99.90
26136;DHT22;13889;50.806;4.608;2022-09-27T16:22:45;15.70;99.90
26136;DHT22;13889;50.806;4.608;2022-09-27T16:25:11;15.60;99.90
26136;DHT22;13889;50.806;4.608;2022-09-27T16:27:37;15.40;99.90
26136;DHT22;13889;50.806;4.608;2022-09-27T16:30:03;15.30;99.90
26136;DHT22;13889;50.806;4.608;2022-09-27T16:32:29;15.20;99.90
26136;DHT22;13889;50.806;4.608;2022-09-27T16:34:54;15.30;99.90
26136;DHT22;13889;50.806;4.608;2022-09-27T16:37:21;15.40;99.90
26136;DHT22;13889;50.806;4.608;2022-09-27T16:39:47;15.30;99.90
26136;DHT22;13889;50.806;4.608;2022-09-27T16:42:13;15.20;99.90
26136;DHT22;13889;50.806;4.608;2022-09-27T16:44:39;15.10;99.90
26136;DHT22;13889;50.806;4.608;2022-09-27T16:47:05;15.10;99.90
26136;DHT22;13889;50.806;4.608;2022-09-27T16:49:33;15.20;99.90
26136;DHT22;13889;50.806;4.608;2022-09-27T16:52:17;15.20;99.90
26136;DHT22;13889;50.806;4.608;2022-09-27T16:54:43;15.10;99.90
26136;DHT22;13889;50.806;4.608;2022-09-27T16:57:08;15.00;99.90
26136;DHT22;13889;50.806;4.608;2022-09-27T16:59:34;15.00;99.90
26136;DHT22;13889;50.806;4.608;2022-09-27T17:02:00;15.00;99.90
26136;DHT22;13889;50.806;4.608;2022-09-27T17:04:27;15.00;99.90
26136;DHT22;13889;50.806;4.608;2022-09-27T17:06:56;15.10;99.90
26136;DHT22;13889;50.806;4.608;2022-09-27T17:09:22;14.90;99.90
26136;DHT22;13889;50.806;4.608;2022-09-27T17:11:48;14.90;99.90
26136;DHT22;13889;50.806;4.608;2022-09-27T17:14:14;14.70;99.90
26136;DHT22;13889;50.806;4.608;2022-09-27T17:16:41;14.60;99.90
26136;DHT22;13889;50.806;4.608;2022-09-27T17:19:08;14.60;99.90
26136;DHT22;13889;50.806;4.608;2022-09-27T17:21:35;14.50;99.90
26136;DHT22;13889;50.806;4.608;2022-09-27T17:24:01;14.60;99.90
26136;DHT22;13889;50.806;4.608;2022-09-27T17:26:27;14.70;99.90
26136;DHT22;13889;50.806;4.608;2022-09-27T17:28:55;14.80;99.90
26136;DHT22;13889;50.806;4.608;2022-09-27T17:31:22;14.80;99.90
26136;DHT22;13889;50.806;4.608;2022-09-27T17:33:49;14.80;99.90
26136;DHT22;13889;50.806;4.608;2022-09-27T17:36:29;14.70;99.90
26136;DHT22;13889;50.806;4.608;2022-09-27T17:38:57;14.50;99.90
26136;DHT22;13889;50.806;4.608;2022-09-27T17:41:27;14.30;99.90
26136;DHT22;13889;50.806;4.608;2022-09-27T17:43:58;14.40;99.90
26136;DHT22;13889;50.806;4.608;2022-09-27T17:46:35;14.50;99.90
26136;DHT22;13889;50.806;4.608;2022-09-27T17:49:01;14.50;99.90
26136;DHT22;13889;50.806;4.608;2022-09-27T17:51:47;14.50;99.90
26136;DHT22;13889;50.806;4.608;2022-09-27T17:54:14;14.60;99.90
26136;DHT22;13889;50.806;4.608;2022-09-27T17:56:41;14.50;99.90
26136;DHT22;13889;50.806;4.608;2022-09-27T17:59:08;14.60;99.90
26136;DHT22;13889;50.806;4.608;2022-09-27T18:01:34;14.50;99.90
26136;DHT22;13889;50.806;4.608;2022-09-27T18:04:05;14.50;99.90
26136;DHT22;13889;50.806;4.608;2022-09-27T18:06:36;14.60;99.90
26136;DHT22;13889;50.806;4.608;2022-09-27T18:09:05;14.50;99.90
26136;DHT22;13889;50.806;4.608;2022-09-27T18:11:32;14.60;99.90
26136;DHT22;13889;50.806;4.608;2022-09-27T18:13:58;14.50;99.90
26136;DHT22;13889;50.806;4.608;2022-09-27T18:16:26;14.50;99.90
26136;DHT22;13889;50.806;4.608;2022-09-27T18:18:57;14.40;99.90
26136;DHT22;13889;50.806;4.608;2022-09-27T18:21:24;14.30;99.90
26136;DHT22;13889;50.806;4.608;2022-09-27T18:23:53;14.20;99.90
26136;DHT22;13889;50.806;4.608;2022-09-27T18:26:21;14.20;99.90
26136;DHT22;13889;50.806;4.608;2022-09-27T18:28:52;14.10;99.90
26136;DHT22;13889;50.806;4.608;2022-09-27T18:31:19;14.00;99.90
26136;DHT22;13889;50.806;4.608;2022-09-27T18:33:46;13.90;99.90
26136;DHT22;13889;50.806;4.608;2022-09-27T18:36:15;13.90;99.90
26136;DHT22;13889;50.806;4.608;2022-09-27T18:38:42;13.70;99.90